Time;durP1;ratioP1;P1;durP2;ratioP2;P2;SDS_P1;SDS_P2;PMS_P1;PMS_P2;Temp;Humidity;BMP_temperature;BMP_pressure;BME280_temperature;BME280_humidity;BME280_pressure;Samples;Min_cycle;Max_cycle;Signal;HPM_P1;HPM_P2
2023/09/20 00:00:32;;;;;;;;;;;17.80;74.40;;;17.05;67.93;96411.38;6111731;23;19920;-91
2023/09/20 00:03:01;;;;;;;;;;;17.80;74.40;;;17.05;68.00;96410.53;6112811;23;19920;-91
2023/09/20 00:05:30;;;;;;;;;;;17.80;74.40;;;17.04;67.83;96415.25;6065378;23;19944;-91
2023/09/20 00:08:02;;;;;;;;;;;17.80;74.30;;;17.04;68.09;96412.47;6112532;23;19928;-91
2023/09/20 00:10:33;;;;;;;;;;;17.80;74.60;;;17.05;67.94;96422.44;6135933;23;19931;-91
2023/09/20 00:13:02;;;;;;;;;;;17.80;74.50;;;17.05;67.99;96422.44;6112433;23;19928;-91
2023/09/20 00:15:40;;;;;;;;;;;17.80;74.40;;;17.05;68.10;96421.59;6137253;23;19924;-91
2023/09/20 00:18:09;;;;;;;;;;;17.80;74.60;;;17.03;67.99;96413.59;6135806;23;19924;-91
2023/09/20 00:20:39;;;;;;;;;;;17.80;74.40;;;17.04;67.86;96415.25;6136026;23;19924;-91
2023/09/20 00:23:09;;;;;;;;;;;17.80;74.40;;;17.03;68.03;96424.66;6112649;23;19928;-91
2023/09/20 00:25:39;;;;;;;;;;;17.80;74.50;;;17.03;68.02;96430.19;6112273;23;19931;-91
2023/09/20 00:28:08;;;;;;;;;;;17.80;74.50;;;17.03;68.05;96432.97;6088617;23;19928;-91
2023/09/20 00:30:37;;;;;;;;;;;17.80;74.60;;;17.02;68.14;96428.56;6135773;23;19929;-91
2023/09/20 00:33:06;;;;;;;;;;;17.80;74.50;;;17.02;67.93;96425.78;6111959;23;19920;-90
2023/09/20 00:35:40;;;;;;;;;;;17.80;74.50;;;17.03;68.27;96427.44;6088767;23;19932;-91
2023/09/20 00:38:08;;;;;;;;;;;17.80;74.70;;;17.01;68.14;96432.44;6089081;23;19925;-91
2023/09/20 00:40:40;;;;;;;;;;;17.80;74.70;;;17.03;67.95;96427.44;6112321;23;19927;-91
2023/09/20 00:43:08;;;;;;;;;;;17.80;74.60;;;17.01;67.85;96432.44;6088994;23;19921;-91
2023/09/20 00:45:40;;;;;;;;;;;17.80;74.40;;;17.00;67.90;96434.41;6112541;23;19921;-90
2023/09/20 00:48:09;;;;;;;;;;;17.80;74.40;;;17.00;67.88;96428.03;6135382;23;19921;-91
2023/09/20 00:50:41;;;;;;;;;;;17.80;74.50;;;17.01;68.00;96432.44;6135381;23;19921;-91
2023/09/20 00:53:13;;;;;;;;;;;17.80;74.40;;;17.01;68.00;96443.50;6136748;23;19928;-92
2023/09/20 00:55:49;;;;;;;;;;;17.80;74.40;;;17.00;67.74;96436.34;6113426;23;19928;-92
2023/09/20 00:58:26;;;;;;;;;;;17.80;74.20;;;16.99;67.63;96432.78;6112989;23;19921;-92
2023/09/20 01:01:00;;;;;;;;;;;17.80;74.30;;;17.00;67.89;96441.88;6112145;23;20344;-92
2023/09/20 01:03:29;;;;;;;;;;;17.80;74.40;;;17.00;68.11;96441.88;6137081;23;19921;-91
2023/09/20 01:05:57;;;;;;;;;;;17.80;74.40;;;17.00;67.98;96445.47;6135304;23;19921;-91
2023/09/20 01:08:26;;;;;;;;;;;17.80;74.40;;;17.00;67.83;96447.41;6112166;23;19943;-91
2023/09/20 01:10:56;;;;;;;;;;;17.80;74.20;;;16.99;67.74;96452.13;6110854;23;19927;-91
2023/09/20 01:13:25;;;;;;;;;;;17.80;74.20;;;16.99;67.91;96445.75;6111879;23;19932;-91
2023/09/20 01:15:53;;;;;;;;;;;17.80;74.40;;;16.98;67.99;96449.66;6112385;23;20356;-91
2023/09/20 01:18:22;;;;;;;;;;;17.80;74.40;;;16.97;67.92;96446.06;6112126;23;19920;-91
2023/09/20 01:20:54;;;;;;;;;;;17.80;74.50;;;16.96;67.96;96454.69;6089068;23;19921;-91
2023/09/20 01:23:25;;;;;;;;;;;17.80;74.50;;;16.97;67.98;96448.03;6111668;23;19920;-91
2023/09/20 01:25:55;;;;;;;;;;;17.70;74.60;;;16.95;68.25;96445.56;6135588;23;19920;-91
2023/09/20 01:28:26;;;;;;;;;;;17.70;74.50;;;16.97;68.09;96453.56;6111796;23;19920;-91
2023/09/20 01:30:55;;;;;;;;;;;17.70;74.70;;;16.96;68.20;96449.16;6111038;23;19929;-91
2023/09/20 01:33:25;;;;;;;;;;;17.70;74.70;;;16.95;67.97;96448.31;6112077;23;19920;-92
2023/09/20 01:35:54;;;;;;;;;;;17.70;74.60;;;16.96;68.29;96457.47;6112120;23;19921;-92
2023/09/20 01:38:26;;;;;;;;;;;17.70;74.70;;;16.95;68.02;96448.31;6111968;23;19921;-91
2023/09/20 01:40:57;;;;;;;;;;;17.70;74.50;;;16.93;68.02;96450.53;6111667;23;19921;-91
2023/09/20 01:43:26;;;;;;;;;;;17.70;74.50;;;16.94;68.15;96454.16;6112197;23;19921;-91
2023/09/20 01:45:55;;;;;;;;;;;17.70;74.70;;;16.93;68.17;96450.53;6111553;23;19936;-91
2023/09/20 01:48:29;;;;;;;;;;;17.70;74.70;;;16.93;67.99;96458.03;6112250;23;19928;-92
2023/09/20 01:50:59;;;;;;;;;;;17.70;75.30;;;16.92;67.98;96457.19;6088069;23;19921;-92
2023/09/20 01:53:33;;;;;;;;;;;17.70;74.50;;;16.93;67.81;96463.56;6088100;23;20287;-91
2023/09/20 01:56:14;;;;;;;;;;;17.70;74.40;;;16.94;68.07;96460.50;6112250;23;19921;-91
2023/09/20 01:58:44;;;;;;;;;;;17.70;74.70;;;16.92;67.88;96461.91;6087885;23;19936;-92
2023/09/20 02:01:13;;;;;;;;;;;17.70;74.30;;;16.92;68.15;96461.91;6088520;23;19921;-91
2023/09/20 02:03:42;;;;;;;;;;;17.70;74.70;;;16.92;67.99;96472.97;6135653;23;19921;-91
2023/09/20 02:06:12;;;;;;;;;;;17.70;74.50;;;16.91;67.92;96454.75;6111690;23;19927;-91
2023/09/20 02:08:45;;;;;;;;;;;17.70;74.50;;;16.90;67.85;96461.41;6111855;23;19927;-92
2023/09/20 02:11:23;;;;;;;;;;;17.70;74.40;;;16.90;68.08;96469.69;6112847;23;19972;-92
2023/09/20 02:14:01;;;;;;;;;;;17.70;74.50;;;16.88;68.08;96459.75;6112147;23;19925;-92
2023/09/20 02:16:33;;;;;;;;;;;17.70;74.40;;;16.90;68.02;96458.63;6111598;23;19921;-91
2023/09/20 02:19:04;;;;;;;;;;;17.70;74.70;;;16.88;67.83;96458.94;6087649;23;20340;-92
2023/09/20 02:21:41;;;;;;;;;;;17.70;74.40;;;16.86;67.96;96453.72;6089010;23;19920;-92
2023/09/20 02:24:34;;;;;;;;;;;;;;;;;;;;;
2023/09/20 02:27:28;;;;;;;;;;;;;;;;;;;;;
2023/09/20 02:30:28;;;;;;;;;;;17.70;74.40;;;16.85;67.67;96468.66;6137472;23;19928;-92
2023/09/20 02:33:05;;;;;;;;;;;17.70;74.30;;;16.84;67.84;96467.03;6139217;23;19921;-92
2023/09/20 02:36:20;;;;;;;;;;;;;;;;;;;;;
2023/09/20 02:39:16;;;;;;;;;;;;;;;;;;;;;
2023/09/20 02:42:39;;;;;;;;;;;17.60;74.40;;;16.85;68.13;96476.16;6098406;23;20337;-92
2023/09/20 02:45:43;;;;;;;;;;;17.60;74.40;;;16.85;68.04;96476.16;6137593;23;19931;-92
2023/09/20 02:52:15;;;;;;;;;;;17.60;74.50;;;16.85;67.92;96479.72;6113482;23;19928;-92
2023/09/20 02:59:45;;;;;;;;;;;;;;;;;;;;;
2023/09/20 03:15:58;;;;;;;;;;;;;;;;;;;;;
2023/09/20 03:19:38;;;;;;;;;;;17.60;74.60;;;16.82;68.12;96487.81;6113447;23;19928;-92
2023/09/20 03:27:01;;;;;;;;;;;17.60;74.50;;;16.82;68.21;96485.03;6057768;23;19921;-92
2023/09/20 03:34:46;;;;;;;;;;;;;;;;;;;;;
2023/09/20 03:46:23;;;;;;;;;;;;;;;;;;;;;
2023/09/20 03:49:51;;;;;;;;;;;17.60;74.70;;;16.80;68.12;96493.66;6001061;23;19930;-92
2023/09/20 03:53:38;;;;;;;;;;;17.60;74.70;;;16.78;68.32;96495.91;6097247;23;19928;-92
2023/09/20 03:57:15;;;;;;;;;;;;;;;;;;;;;
2023/09/20 04:00:38;;;;;;;;;;;;;;;;;;;;;
2023/09/20 04:03:31;;;;;;;;;;;17.50;74.70;;;16.76;68.38;96480.75;6088933;23;19929;-92
2023/09/20 04:06:18;;;;;;;;;;;17.50;74.80;;;16.77;68.14;96493.44;6137202;23;19969;-92
2023/09/20 04:09:43;;;;;;;;;;;17.50;75.50;;;16.75;68.29;96485.44;6113103;23;19924;-92
2023/09/20 04:13:09;;;;;;;;;;;17.50;74.80;;;16.72;68.21;96486.88;6096514;23;20222;-92
2023/09/20 04:16:13;;;;;;;;;;;17.50;74.60;;;16.75;68.07;96490.16;5988892;23;19923;-92
2023/09/20 04:19:24;;;;;;;;;;;17.50;74.60;;;16.75;68.07;96493.72;6105951;23;19924;-92
2023/09/20 04:22:53;;;;;;;;;;;;;;;;;;;;;
2023/09/20 04:25:47;;;;;;;;;;;17.50;74.60;;;16.73;68.20;96498.75;6137052;23;19924;-92
2023/09/20 04:28:40;;;;;;;;;;;;;;;;;;;;;
2023/09/20 04:31:29;;;;;;;;;;;17.50;74.30;;;16.71;68.06;96495.47;6116843;23;20337;-92
2023/09/20 04:34:21;;;;;;;;;;;17.50;74.50;;;16.72;68.04;96502.63;6136303;23;19921;-92
2023/09/20 04:37:01;;;;;;;;;;;17.50;74.50;;;16.71;68.28;96501.81;6088783;23;19920;-92
2023/09/20 04:39:43;;;;;;;;;;;17.50;74.60;;;16.72;68.16;96508.16;6136214;23;19928;-92
2023/09/20 04:42:27;;;;;;;;;;;17.50;74.50;;;16.72;67.86;96505.38;6111831;23;19927;-92
2023/09/20 04:45:02;;;;;;;;;;;17.50;74.40;;;16.70;68.18;96508.47;6136637;23;19920;-92
2023/09/20 04:47:49;;;;;;;;;;;17.50;74.50;;;16.72;67.96;96506.22;6136370;23;19928;-92
2023/09/20 04:50:32;;;;;;;;;;;17.50;74.60;;;16.71;68.28;96509.31;6113621;23;19927;-92
2023/09/20 04:53:16;;;;;;;;;;;17.50;75.60;;;16.72;67.85;96521.97;6112738;23;19922;-92
2023/09/20 04:56:06;;;;;;;;;;;17.50;74.50;;;16.72;67.83;96520.03;6136560;23;19925;-92
2023/09/20 04:58:42;;;;;;;;;;;17.50;74.40;;;16.75;67.92;96523.34;6112750;23;19940;-92
2023/09/20 05:01:32;;;;;;;;;;;17.50;74.50;;;16.75;68.07;96524.13;6135051;23;19921;-92
2023/09/20 05:04:18;;;;;;;;;;;17.50;74.50;;;16.74;67.86;96525.25;6136135;23;19920;-92
2023/09/20 05:06:53;;;;;;;;;;;17.50;74.30;;;16.75;67.75;96529.66;6112542;23;20109;-92
2023/09/20 05:09:54;;;;;;;;;;;;;;;;;;;;;
2023/09/20 05:12:29;;;;;;;;;;;17.50;74.10;;;16.73;67.79;96523.63;6135642;23;20366;-92
2023/09/20 05:15:22;;;;;;;;;;;17.50;74.20;;;16.74;68.14;96522.50;6113107;23;19927;-92
2023/09/20 05:18:06;;;;;;;;;;;17.50;74.60;;;16.77;68.09;96530.19;6136999;23;19928;-92
2023/09/20 05:21:02;;;;;;;;;;;17.50;74.60;;;16.85;67.85;96529.50;6112695;23;19924;-92
2023/09/20 05:23:40;;;;;;;;;;;17.60;74.40;;;16.87;67.66;96537.50;6112106;23;19920;-92
2023/09/20 05:26:18;;;;;;;;;;;17.70;74.10;;;16.90;67.59;96541.59;6135800;23;19921;-92
2023/09/20 05:28:58;;;;;;;;;;;17.70;74.00;;;16.90;67.55;96544.34;6112065;23;19927;-92
2023/09/20 05:31:55;;;;;;;;;;;17.70;73.80;;;16.86;67.69;96538.63;6136585;23;19975;-92
2023/09/20 05:34:46;;;;;;;;;;;17.70;73.90;;;16.81;67.65;96534.00;6107618;23;19921;-92
2023/09/20 05:37:17;;;;;;;;;;;17.60;74.20;;;16.80;68.01;96531.53;6112052;23;19928;-92
2023/09/20 05:40:05;;;;;;;;;;;17.60;74.40;;;16.88;68.35;96528.09;6112427;23;20256;-92
2023/09/20 05:42:38;;;;;;;;;;;17.60;74.80;;;17.33;67.56;96533.09;6135742;23;19927;-91
2023/09/20 05:45:14;;;;;;;;;;;18.10;74.20;;;17.87;65.78;96538.13;6136606;23;19928;-92
2023/09/20 05:47:54;;;;;;;;;;;18.60;72.20;;;18.44;64.12;96540.47;6112865;23;19921;-92
2023/09/20 05:50:33;;;;;;;;;;;19.10;70.30;;;18.73;62.19;96539.19;6112084;23;20360;-92
2023/09/20 05:53:09;;;;;;;;;;;19.50;67.90;;;18.69;62.18;96544.56;6111926;23;19920;-92
2023/09/20 05:55:44;;;;;;;;;;;19.50;67.60;;;18.48;62.49;96546.19;6112662;23;20292;-92
2023/09/20 05:58:18;;;;;;;;;;;19.30;67.90;;;18.28;63.33;96555.81;6137580;23;20356;-92
2023/09/20 06:00:51;;;;;;;;;;;19.10;68.70;;;18.07;64.15;96551.53;6113564;23;20336;-92
2023/09/20 06:03:23;;;;;;;;;;;19.00;69.30;;;17.97;64.73;96557.31;6114620;23;19921;-92
2023/09/20 06:06:32;;;;;;;;;;;18.90;70.50;;;17.91;65.89;96564.88;6138808;23;19921;-92
2023/09/20 06:09:18;;;;;;;;;;;;;;;;;;;;;
2023/09/20 06:12:33;;;;;;;;;;;;;;;;;;;;;
2023/09/20 06:15:20;;;;;;;;;;;;;;;;;;;;;
2023/09/20 06:17:53;;;;;;;;;;;18.50;73.90;;;17.80;66.67;96566.22;6092340;23;19927;-91
2023/09/20 06:20:25;;;;;;;;;;;18.50;73.00;;;17.84;66.48;96577.50;6113123;23;19921;-91
2023/09/20 06:22:55;;;;;;;;;;;18.50;73.00;;;17.87;66.10;96574.13;6113016;23;19927;-91
2023/09/20 06:25:26;;;;;;;;;;;18.60;72.80;;;17.93;66.34;96567.34;6113449;23;19928;-91
2023/09/20 06:28:03;;;;;;;;;;;18.60;72.80;;;17.96;66.16;96566.72;6113361;23;20555;-91
2023/09/20 06:30:32;;;;;;;;;;;18.70;72.90;;;18.02;66.22;96570.22;6112769;23;19928;-91
2023/09/20 06:33:00;;;;;;;;;;;18.70;72.80;;;18.07;65.92;96572.91;6113105;23;19925;-90
2023/09/20 06:35:30;;;;;;;;;;;18.70;72.70;;;18.13;65.87;96577.19;6113011;23;19921;-91
2023/09/20 06:37:59;;;;;;;;;;;18.80;72.60;;;18.15;66.11;96572.16;6113398;23;19943;-90
2023/09/20 06:40:34;;;;;;;;;;;18.80;72.50;;;18.14;65.95;96572.47;6136642;23;19924;-91
2023/09/20 06:43:04;;;;;;;;;;;18.80;72.50;;;18.13;66.06;96571.66;6113477;23;19921;-91
2023/09/20 06:45:37;;;;;;;;;;;18.90;72.70;;;18.12;66.25;96580.28;6136997;23;20233;-91
2023/09/20 06:48:08;;;;;;;;;;;18.90;72.80;;;18.11;66.56;96584.19;6112692;23;19944;-91
2023/09/20 06:50:38;;;;;;;;;;;18.80;72.70;;;18.09;66.34;96590.84;6135590;23;19932;-91
2023/09/20 06:53:08;;;;;;;;;;;18.80;72.90;;;18.11;66.64;96581.41;6136152;23;19925;-91
2023/09/20 06:55:38;;;;;;;;;;;18.80;73.00;;;18.13;66.54;96587.47;6136827;23;20332;-91
2023/09/20 06:58:09;;;;;;;;;;;18.80;72.80;;;18.18;66.29;96590.09;6136937;23;20264;-91
2023/09/20 07:00:40;;;;;;;;;;;18.80;72.80;;;18.21;66.16;96590.28;6112530;23;19925;-92
2023/09/20 07:03:10;;;;;;;;;;;18.90;72.90;;;18.27;66.15;96588.22;6136519;23;19928;-91
2023/09/20 07:05:40;;;;;;;;;;;18.90;72.80;;;18.31;66.03;96589.25;6112707;23;19943;-91
2023/09/20 07:08:25;;;;;;;;;;;19.00;72.70;;;18.34;65.72;96590.56;6136981;23;19970;-91
2023/09/20 07:11:00;;;;;;;;;;;19.00;72.60;;;18.40;65.90;96586.56;6112457;23;19921;-91
2023/09/20 07:13:47;;;;;;;;;;;19.00;72.50;;;18.47;65.90;96594.47;6112541;23;19976;-91
2023/09/20 07:16:30;;;;;;;;;;;;;;;;;;;;;
2023/09/20 07:19:18;;;;;;;;;;;19.10;72.40;;;18.55;65.37;96593.72;6111836;23;19932;-91
2023/09/20 07:22:22;;;;;;;;;;;;;;;;;;;;;
2023/09/20 07:25:39;;;;;;;;;;;19.20;72.20;;;18.62;65.31;96596.06;6112231;23;19931;-91
2023/09/20 07:29:26;;;;;;;;;;;19.20;72.00;;;18.68;64.89;96597.59;6137257;23;19948;-91
2023/09/20 07:32:15;;;;;;;;;;;19.30;71.90;;;18.73;65.13;96594.66;6089548;23;19921;-91
2023/09/20 07:38:37;;;;;;;;;;;19.30;71.90;;;18.79;64.37;96614.78;6116535;23;19928;-91
